createdAt,value
2018-02-01T00:00:06.672Z,992.92
2018-02-01T00:00:32.703Z,992.96
2018-02-01T00:00:59.083Z,992.94
2018-02-01T00:01:25.208Z,992.97
2018-02-01T00:01:51.394Z,992.96
2018-02-01T00:02:17.601Z,992.96
2018-02-01T00:02:43.675Z,993.02
2018-02-01T00:03:09.802Z,992.99
2018-02-01T00:03:36.059Z,993.02
2018-02-01T00:04:02.198Z,993.04
2018-02-01T00:04:28.343Z,993.03
2018-02-01T00:04:54.604Z,992.97
2018-02-01T00:05:20.914Z,992.99
2018-02-01T00:05:47.377Z,992.98
2018-02-01T00:06:13.522Z,992.99
2018-02-01T00:06:39.938Z,993
2018-02-01T00:07:06.273Z,993.03
2018-02-01T00:07:32.371Z,993.02
2018-02-01T00:07:58.472Z,993.04
2018-02-01T00:08:24.914Z,993.05
2018-02-01T00:08:51.057Z,993.04
2018-02-01T00:09:17.180Z,993.06
2018-02-01T00:09:43.488Z,993.08
2018-02-01T00:10:09.664Z,993.03
2018-02-01T00:10:35.994Z,993.08
2018-02-01T00:11:02.063Z,993.04
2018-02-01T00:11:28.155Z,993.02
2018-02-01T00:11:54.496Z,993.06
2018-02-01T00:12:21.002Z,993.03
2018-02-01T00:12:47.077Z,993.03
2018-02-01T00:13:13.320Z,993.07
2018-02-01T00:13:39.420Z,993.05
2018-02-01T00:14:05.583Z,993.05
2018-02-01T00:14:32.002Z,993.1
2018-02-01T00:14:58.051Z,993.08
2018-02-01T00:15:24.305Z,993.07
2018-02-01T00:15:50.629Z,993.05
2018-02-01T00:16:16.704Z,993.06
2018-02-01T00:16:43.378Z,993.08
2018-02-01T00:17:09.950Z,993.06
2018-02-01T00:17:36.337Z,993.07
2018-02-01T00:18:02.705Z,993.04
2018-02-01T00:18:28.847Z,993.05
2018-02-01T00:18:55.274Z,993.05
2018-02-01T00:19:21.342Z,993.02
2018-02-01T00:19:47.495Z,993.02
2018-02-01T00:20:13.647Z,992.99
2018-02-01T00:20:39.855Z,993
2018-02-01T00:21:05.935Z,993.04
2018-02-01T00:21:32.144Z,993
2018-02-01T00:21:58.430Z,993.01
2018-02-01T00:22:24.527Z,992.98
2018-02-01T00:22:50.629Z,992.97
2018-02-01T00:23:16.725Z,992.96
2018-02-01T00:23:42.830Z,992.99
2018-02-01T00:24:08.927Z,992.95
2018-02-01T00:24:35.034Z,993
2018-02-01T00:25:01.141Z,992.96
2018-02-01T00:25:27.238Z,992.96
2018-02-01T00:25:53.358Z,992.98
2018-02-01T00:26:19.450Z,992.96
2018-02-01T00:26:45.552Z,992.89
2018-02-01T00:27:11.660Z,992.93
2018-02-01T00:27:37.764Z,992.92
2018-02-01T00:28:03.872Z,992.94
2018-02-01T00:28:29.982Z,992.96
2018-02-01T00:28:56.082Z,992.94
2018-02-01T00:29:22.181Z,992.91
2018-02-01T00:29:48.291Z,992.91
2018-02-01T00:30:14.414Z,992.96
2018-02-01T00:30:40.512Z,992.88
2018-02-01T00:31:06.630Z,992.89
2018-02-01T00:31:32.734Z,992.86
2018-02-01T00:31:58.850Z,992.92
2018-02-01T00:32:24.954Z,992.87
2018-02-01T00:32:51.063Z,992.89
2018-02-01T00:33:17.211Z,992.88
2018-02-01T00:33:43.273Z,992.89
2018-02-01T00:34:09.378Z,992.9
2018-02-01T00:34:35.484Z,992.93
2018-02-01T00:35:01.580Z,992.92
2018-02-01T00:35:27.685Z,992.96
2018-02-01T00:35:53.786Z,992.95
2018-02-01T00:36:19.883Z,992.99
2018-02-01T00:36:45.997Z,992.98
2018-02-01T00:37:12.102Z,992.98
2018-02-01T00:37:38.196Z,992.99
2018-02-01T00:38:04.296Z,993.01
2018-02-01T00:38:30.399Z,992.96
2018-02-01T00:38:56.496Z,992.96
2018-02-01T00:39:22.592Z,992.98
2018-02-01T00:39:48.691Z,992.93
2018-02-01T00:40:14.793Z,992.93
2018-02-01T00:40:40.911Z,992.95
2018-02-01T00:41:07.004Z,992.97
2018-02-01T00:41:33.111Z,992.93
2018-02-01T00:41:59.210Z,992.95
2018-02-01T00:42:25.309Z,992.94
2018-02-01T00:42:51.409Z,992.93
2018-02-01T00:43:17.517Z,992.9
2018-02-01T00:43:43.615Z,992.92
2018-02-01T00:44:09.722Z,992.93
2018-02-01T00:44:35.819Z,992.93
2018-02-01T00:45:01.924Z,992.94
2018-02-01T00:45:28.024Z,992.92
2018-02-01T00:45:54.122Z,992.88
2018-02-01T00:46:20.224Z,992.91
2018-02-01T00:46:46.316Z,992.97
2018-02-01T00:47:12.418Z,992.93
2018-02-01T00:47:38.513Z,992.94
2018-02-01T00:48:04.621Z,992.9
2018-02-01T00:48:30.726Z,992.95
2018-02-01T00:48:56.837Z,992.93
2018-02-01T00:49:22.936Z,992.97
2018-02-01T00:49:49.033Z,992.92
2018-02-01T00:50:15.136Z,992.93
2018-02-01T00:50:41.231Z,992.94
2018-02-01T00:51:07.332Z,992.91
2018-02-01T00:51:33.433Z,992.9
2018-02-01T00:51:59.527Z,992.92
2018-02-01T00:52:25.636Z,992.91
2018-02-01T00:52:51.735Z,992.96
2018-02-01T00:53:17.837Z,992.95
2018-02-01T00:53:43.935Z,992.96
2018-02-01T00:54:10.030Z,992.97
2018-02-01T00:54:36.132Z,992.96
2018-02-01T00:55:02.229Z,992.96
2018-02-01T00:55:28.327Z,992.97
2018-02-01T00:55:54.446Z,992.99
2018-02-01T00:56:20.546Z,992.98
2018-02-01T00:56:46.647Z,993.01
2018-02-01T00:57:12.745Z,993.01
2018-02-01T00:57:38.857Z,992.97
2018-02-01T00:58:04.960Z,992.95
2018-02-01T00:58:31.053Z,992.95
2018-02-01T00:58:57.159Z,992.92
2018-02-01T00:59:23.257Z,992.97
2018-02-01T00:59:49.358Z,992.99
2018-02-01T01:00:15.458Z,993
2018-02-01T01:00:41.557Z,992.93
2018-02-01T01:01:07.658Z,992.97
2018-02-01T01:01:33.754Z,992.91
2018-02-01T01:01:59.877Z,993.01
2018-02-01T01:02:25.973Z,992.98
2018-02-01T01:02:52.066Z,993.02
2018-02-01T01:03:18.167Z,993.06
2018-02-01T01:03:44.269Z,992.97
2018-02-01T01:04:10.366Z,993.04
2018-02-01T01:04:36.463Z,993.02
2018-02-01T01:05:02.609Z,993.03
2018-02-01T01:05:28.702Z,993.07
2018-02-01T01:05:54.802Z,993.02
2018-02-01T01:06:21.010Z,993
2018-02-01T01:06:53.304Z,993.01
2018-02-01T01:07:19.408Z,993.02
2018-02-01T01:07:45.686Z,993.03
2018-02-01T01:08:12.131Z,993
2018-02-01T01:08:38.287Z,992.97
2018-02-01T01:09:04.715Z,993.02
2018-02-01T01:09:31.154Z,993
2018-02-01T01:09:57.565Z,993.04
2018-02-01T01:10:23.744Z,993.06
2018-02-01T01:10:50.040Z,993.02
2018-02-01T01:11:16.271Z,993.01
2018-02-01T01:11:43.047Z,993.02
2018-02-01T01:12:09.167Z,993.01
2018-02-01T01:12:36.155Z,993.02
2018-02-01T01:13:02.260Z,993.03
2018-02-01T01:13:28.685Z,993.01
2018-02-01T01:13:54.843Z,993.01
2018-02-01T01:14:21.248Z,992.99
2018-02-01T01:14:47.576Z,992.99
2018-02-01T01:15:14.017Z,993
2018-02-01T01:15:40.169Z,992.95
2018-02-01T01:16:06.765Z,992.98
2018-02-01T01:16:32.854Z,992.98
2018-02-01T01:16:59.103Z,993.01
2018-02-01T01:17:25.632Z,992.98
2018-02-01T01:17:51.968Z,993.05
2018-02-01T01:18:18.416Z,992.98
2018-02-01T01:18:44.578Z,993
2018-02-01T01:19:11.048Z,993.01
2018-02-01T01:19:37.425Z,992.95
2018-02-01T01:20:03.563Z,992.98
2018-02-01T01:20:30.018Z,993.07
2018-02-01T01:20:56.612Z,993.01
2018-02-01T01:21:22.818Z,992.96
2018-02-01T01:21:49.137Z,992.98
2018-02-01T01:22:15.298Z,992.99
2018-02-01T01:22:41.718Z,993.02
2018-02-01T01:23:07.850Z,993.02
2018-02-01T01:23:33.954Z,993.01
2018-02-01T01:24:00.433Z,993.03
2018-02-01T01:24:26.693Z,993.03
2018-02-01T01:24:53.433Z,993.05
2018-02-01T01:25:19.500Z,993.05
2018-02-01T01:25:45.895Z,993.05
2018-02-01T01:26:12.307Z,993.04
2018-02-01T01:26:38.417Z,993.09
2018-02-01T01:27:05.195Z,993.07
2018-02-01T01:27:31.299Z,993.05
2018-02-01T01:27:57.455Z,993.07
2018-02-01T01:28:23.867Z,993.06
2018-02-01T01:28:50.185Z,993.08
2018-02-01T01:29:16.560Z,993.06
2018-02-01T01:29:42.592Z,993.02
2018-02-01T01:30:09.039Z,993.08
2018-02-01T01:30:35.746Z,993.07
2018-02-01T01:31:02.144Z,993.1
2018-02-01T01:31:28.775Z,993.12
2018-02-01T01:31:55.125Z,993.12
2018-02-01T01:32:21.630Z,993.15
2018-02-01T01:32:48.077Z,993.06
2018-02-01T01:33:14.446Z,993.1
2018-02-01T01:33:40.950Z,993.08
2018-02-01T01:34:07.398Z,993.06
2018-02-01T01:34:34.153Z,993.06
2018-02-01T01:35:00.546Z,993.17
2018-02-01T01:35:26.954Z,993.07
2018-02-01T01:35:53.565Z,993.09
2018-02-01T01:36:19.584Z,993.05
2018-02-01T01:36:46.043Z,993.04
2018-02-01T01:37:12.162Z,993.04
2018-02-01T01:37:38.465Z,993.03
2018-02-01T01:38:05.006Z,993.04
2018-02-01T01:38:31.355Z,993.04
2018-02-01T01:38:57.696Z,993.05
2018-02-01T01:39:24.138Z,993.06
2018-02-01T01:39:50.277Z,993.07
2018-02-01T01:40:16.408Z,993.06
2018-02-01T01:40:42.633Z,993.09
2018-02-01T01:41:08.680Z,993
2018-02-01T01:41:34.780Z,993.05
2018-02-01T01:42:01.626Z,993
2018-02-01T01:42:27.775Z,993.03
2018-02-01T01:42:53.936Z,992.99
2018-02-01T01:43:20.674Z,993
2018-02-01T01:43:47.121Z,993
2018-02-01T01:44:14.172Z,993.03
2018-02-01T01:44:41.001Z,993
2018-02-01T01:45:07.152Z,992.97
2018-02-01T01:45:33.620Z,992.98
2018-02-01T01:45:59.895Z,992.94
2018-02-01T01:46:26.112Z,992.98
2018-02-01T01:46:52.276Z,992.97
2018-02-01T01:47:18.761Z,992.96
2018-02-01T01:47:45.175Z,992.95
2018-02-01T01:48:11.286Z,992.97
2018-02-01T01:48:37.677Z,992.92
2018-02-01T01:49:03.759Z,992.88
2018-02-01T01:49:29.950Z,992.91
2018-02-01T01:49:56.070Z,992.99
2018-02-01T01:50:22.222Z,992.98
2018-02-01T01:50:48.766Z,992.88
2018-02-01T01:51:15.072Z,992.9
2018-02-01T01:51:41.311Z,992.9
2018-02-01T01:52:07.413Z,992.83
2018-02-01T01:52:33.547Z,992.89
2018-02-01T01:53:00.157Z,992.86
2018-02-01T01:53:26.493Z,992.93
2018-02-01T01:53:52.593Z,992.9
2018-02-01T01:54:18.700Z,992.91
2018-02-01T01:54:44.795Z,992.9
2018-02-01T01:55:10.896Z,992.85
2018-02-01T01:55:36.998Z,992.88
2018-02-01T01:56:03.090Z,992.89
2018-02-01T01:56:29.213Z,992.86
2018-02-01T01:56:55.327Z,992.89
2018-02-01T01:57:21.425Z,992.88
2018-02-01T01:57:47.531Z,992.89
2018-02-01T01:58:13.626Z,992.92
2018-02-01T01:58:39.730Z,992.91
2018-02-01T01:59:05.835Z,992.85
2018-02-01T01:59:31.932Z,992.89
2018-02-01T01:59:58.035Z,992.85
2018-02-01T02:00:24.135Z,992.85
2018-02-01T02:00:50.235Z,992.8
2018-02-01T02:01:16.333Z,992.83
2018-02-01T02:01:42.437Z,992.78
2018-02-01T02:02:08.534Z,992.86
2018-02-01T02:02:34.639Z,992.83
2018-02-01T02:03:00.738Z,992.84
2018-02-01T02:03:26.838Z,992.76
2018-02-01T02:03:52.936Z,992.81
2018-02-01T02:04:19.036Z,992.83
2018-02-01T02:04:45.134Z,992.8
2018-02-01T02:05:11.252Z,992.8
2018-02-01T02:05:37.355Z,992.87
2018-02-01T02:06:03.457Z,992.81
2018-02-01T02:06:29.557Z,992.84
2018-02-01T02:06:55.658Z,992.84
2018-02-01T02:07:21.749Z,992.8
2018-02-01T02:07:47.850Z,992.8
2018-02-01T02:08:13.944Z,992.86
2018-02-01T02:08:40.047Z,992.96
2018-02-01T02:09:06.144Z,992.86
2018-02-01T02:09:32.242Z,992.85
2018-02-01T02:09:58.345Z,992.86
2018-02-01T02:10:24.444Z,992.87
2018-02-01T02:10:50.543Z,992.87
2018-02-01T02:11:16.646Z,992.83
2018-02-01T02:11:42.751Z,992.81
2018-02-01T02:12:08.852Z,992.85
2018-02-01T02:12:34.948Z,992.85
2018-02-01T02:13:01.043Z,992.91
2018-02-01T02:13:27.146Z,992.9
2018-02-01T02:13:53.248Z,992.87
2018-02-01T02:14:19.364Z,992.89
2018-02-01T02:14:45.475Z,992.83
2018-02-01T02:15:11.583Z,992.85
2018-02-01T02:15:37.681Z,992.8
2018-02-01T02:16:03.776Z,992.84
2018-02-01T02:16:29.882Z,992.82
2018-02-01T02:16:55.979Z,992.77
2018-02-01T02:17:22.079Z,992.79
2018-02-01T02:17:48.179Z,992.84
2018-02-01T02:18:14.280Z,992.78
2018-02-01T02:18:40.378Z,992.77
2018-02-01T02:19:06.482Z,992.79
2018-02-01T02:19:32.576Z,992.75
2018-02-01T02:19:58.675Z,992.78
2018-02-01T02:20:24.775Z,992.73
2018-02-01T02:20:50.876Z,992.73
2018-02-01T02:21:16.993Z,992.7
2018-02-01T02:21:43.093Z,992.7
2018-02-01T02:22:09.197Z,992.71
2018-02-01T02:22:35.298Z,992.65
2018-02-01T02:23:01.393Z,992.69
2018-02-01T02:23:27.495Z,992.66
2018-02-01T02:23:53.591Z,992.63
2018-02-01T02:24:19.690Z,992.62
2018-02-01T02:24:45.792Z,992.64
2018-02-01T02:25:11.886Z,992.62
2018-02-01T02:25:37.990Z,992.61
2018-02-01T02:26:04.089Z,992.63
2018-02-01T02:26:30.186Z,992.57
2018-02-01T02:26:56.290Z,992.62
2018-02-01T02:27:22.389Z,992.6
2018-02-01T02:27:48.491Z,992.58
2018-02-01T02:28:14.592Z,992.56
2018-02-01T02:28:40.684Z,992.59
2018-02-01T02:29:06.792Z,992.59
2018-02-01T02:29:32.905Z,992.63
2018-02-01T02:29:59.026Z,992.63
2018-02-01T02:30:25.131Z,992.65
2018-02-01T02:30:51.241Z,992.63
2018-02-01T02:31:17.347Z,992.59
2018-02-01T02:31:43.450Z,992.61
2018-02-01T02:32:09.552Z,992.61
2018-02-01T02:32:35.653Z,992.61
2018-02-01T02:33:01.754Z,992.62
2018-02-01T02:33:27.880Z,992.63
2018-02-01T02:33:53.980Z,992.61
2018-02-01T02:34:20.087Z,992.64
2018-02-01T02:34:46.190Z,992.58
2018-02-01T02:35:12.288Z,992.57
2018-02-01T02:35:38.392Z,992.56
2018-02-01T02:36:04.501Z,992.53
2018-02-01T02:36:30.608Z,992.61
2018-02-01T02:36:56.720Z,992.59
2018-02-01T02:37:22.828Z,992.53
2018-02-01T02:37:48.941Z,992.54
2018-02-01T02:38:15.079Z,992.52
2018-02-01T02:38:41.143Z,992.52
2018-02-01T02:39:07.241Z,992.55
2018-02-01T02:39:33.349Z,992.52
2018-02-01T02:39:59.453Z,992.5
2018-02-01T02:40:25.551Z,992.47
2018-02-01T02:40:51.658Z,992.51
2018-02-01T02:41:17.759Z,992.46
2018-02-01T02:41:43.866Z,992.47
2018-02-01T02:42:09.982Z,992.5
2018-02-01T02:42:36.088Z,992.56
2018-02-01T02:43:02.191Z,992.52
2018-02-01T02:43:28.325Z,992.5
2018-02-01T02:43:54.432Z,992.47
2018-02-01T02:44:20.533Z,992.43
2018-02-01T02:44:46.659Z,992.46
2018-02-01T02:45:12.764Z,992.49
2018-02-01T02:45:38.872Z,992.44
2018-02-01T02:46:04.992Z,992.43
2018-02-01T02:46:31.090Z,992.43
2018-02-01T02:46:57.195Z,992.43
2018-02-01T02:47:23.295Z,992.43
2018-02-01T02:47:49.402Z,992.41
2018-02-01T02:48:15.502Z,992.42
2018-02-01T02:48:41.602Z,992.44
2018-02-01T02:49:07.711Z,992.42
2018-02-01T02:49:33.815Z,992.39
2018-02-01T02:49:59.922Z,992.45
2018-02-01T02:50:26.021Z,992.45
2018-02-01T02:50:52.128Z,992.47
2018-02-01T02:51:18.229Z,992.45
2018-02-01T02:51:44.324Z,992.41
2018-02-01T02:52:10.433Z,992.44
2018-02-01T02:52:36.531Z,992.49
2018-02-01T02:53:02.642Z,992.51
2018-02-01T02:53:28.737Z,992.49
2018-02-01T02:53:54.841Z,992.48
2018-02-01T02:54:20.935Z,992.48
2018-02-01T02:54:47.031Z,992.5
2018-02-01T02:55:13.137Z,992.46
2018-02-01T02:55:39.239Z,992.51
2018-02-01T02:56:05.335Z,992.5
2018-02-01T02:56:31.435Z,992.47
2018-02-01T02:56:57.528Z,992.44
2018-02-01T02:57:23.651Z,992.43
2018-02-01T02:57:49.754Z,992.4
2018-02-01T02:58:15.850Z,992.48
2018-02-01T02:58:41.955Z,992.47
2018-02-01T02:59:08.074Z,992.37
2018-02-01T02:59:34.171Z,992.42
2018-02-01T03:00:00.261Z,992.41
2018-02-01T03:00:26.366Z,992.39
2018-02-01T03:00:52.466Z,992.39
2018-02-01T03:01:18.561Z,992.37
2018-02-01T03:01:44.669Z,992.36
2018-02-01T03:02:10.759Z,992.39
2018-02-01T03:02:36.854Z,992.38
2018-02-01T03:03:02.959Z,992.37
2018-02-01T03:03:29.052Z,992.41
2018-02-01T03:03:55.157Z,992.35
2018-02-01T03:04:21.259Z,992.43
2018-02-01T03:04:47.355Z,992.36
2018-02-01T03:05:13.461Z,992.37
2018-02-01T03:05:39.557Z,992.4
2018-02-01T03:06:05.655Z,992.4
2018-02-01T03:06:31.782Z,992.36
2018-02-01T03:06:57.876Z,992.33
2018-02-01T03:07:23.980Z,992.36
2018-02-01T03:07:50.075Z,992.35
2018-02-01T03:08:16.183Z,992.39
2018-02-01T03:08:42.280Z,992.35
2018-02-01T03:09:08.377Z,992.37
2018-02-01T03:09:34.472Z,992.37
2018-02-01T03:10:00.574Z,992.39
2018-02-01T03:10:26.674Z,992.33
2018-02-01T03:10:52.783Z,992.33
2018-02-01T03:11:18.892Z,992.39
2018-02-01T03:11:44.989Z,992.36
2018-02-01T03:12:11.091Z,992.37
2018-02-01T03:12:37.193Z,992.35
2018-02-01T03:13:03.291Z,992.35
2018-02-01T03:13:29.391Z,992.35
2018-02-01T03:13:55.486Z,992.37
2018-02-01T03:14:21.589Z,992.33
2018-02-01T03:14:47.690Z,992.32
2018-02-01T03:15:13.796Z,992.37
2018-02-01T03:15:39.906Z,992.35
2018-02-01T03:16:06.013Z,992.32
2018-02-01T03:16:32.111Z,992.33
2018-02-01T03:16:58.210Z,992.35
2018-02-01T03:17:24.306Z,992.35
2018-02-01T03:17:50.406Z,992.38
2018-02-01T03:18:16.505Z,992.3
2018-02-01T03:18:42.610Z,992.36
2018-02-01T03:19:08.708Z,992.33
2018-02-01T03:19:34.809Z,992.37
2018-02-01T03:20:00.910Z,992.35
2018-02-01T03:20:27.010Z,992.45
2018-02-01T03:20:53.111Z,992.37
2018-02-01T03:21:19.212Z,992.4
2018-02-01T03:21:45.308Z,992.41
2018-02-01T03:22:11.397Z,992.43
2018-02-01T03:22:37.504Z,992.38
2018-02-01T03:23:03.615Z,992.43
2018-02-01T03:23:29.719Z,992.38
2018-02-01T03:23:55.813Z,992.47
2018-02-01T03:24:21.913Z,992.45
2018-02-01T03:24:48.013Z,992.43
2018-02-01T03:25:14.107Z,992.41
2018-02-01T03:25:40.210Z,992.55
2018-02-01T03:26:06.325Z,992.47
2018-02-01T03:26:32.421Z,992.48
2018-02-01T03:26:58.519Z,992.46
2018-02-01T03:27:24.638Z,992.45
2018-02-01T03:27:50.742Z,992.45
2018-02-01T03:28:16.842Z,992.43
2018-02-01T03:28:42.940Z,992.43
2018-02-01T03:29:09.046Z,992.48
2018-02-01T03:29:35.145Z,992.44
2018-02-01T03:30:01.254Z,992.44
2018-02-01T03:30:27.358Z,992.5
2018-02-01T03:30:53.458Z,992.39
2018-02-01T03:31:19.555Z,992.43
2018-02-01T03:31:45.656Z,992.45
2018-02-01T03:32:11.749Z,992.45
2018-02-01T03:32:37.854Z,992.48
2018-02-01T03:33:03.955Z,992.44
2018-02-01T03:33:30.052Z,992.46
2018-02-01T03:33:56.157Z,992.51
2018-02-01T03:34:22.265Z,992.5
2018-02-01T03:34:48.363Z,992.51
2018-02-01T03:35:14.466Z,992.48
2018-02-01T03:35:40.567Z,992.47
2018-02-01T03:36:06.667Z,992.54
2018-02-01T03:36:32.774Z,992.49
2018-02-01T03:36:58.877Z,992.51
2018-02-01T03:37:25.048Z,992.54
2018-02-01T03:37:51.176Z,992.56
2018-02-01T03:38:17.271Z,992.53
2018-02-01T03:38:43.370Z,992.47
2018-02-01T03:39:09.476Z,992.53
2018-02-01T03:39:35.570Z,992.56
2018-02-01T03:40:01.701Z,992.55
2018-02-01T03:40:27.771Z,992.52
2018-02-01T03:40:53.865Z,992.45
2018-02-01T03:41:19.961Z,992.53
2018-02-01T03:41:46.065Z,992.53
2018-02-01T03:42:12.157Z,992.5
2018-02-01T03:42:38.264Z,992.45
2018-02-01T03:43:04.363Z,992.46
2018-02-01T03:43:30.467Z,992.53
2018-02-01T03:43:56.565Z,992.53
2018-02-01T03:44:22.662Z,992.53
2018-02-01T03:44:48.762Z,992.49
2018-02-01T03:45:14.861Z,992.46
2018-02-01T03:45:40.967Z,992.54
2018-02-01T03:46:07.061Z,992.51
2018-02-01T03:46:33.164Z,992.54
2018-02-01T03:46:59.266Z,992.55
2018-02-01T03:47:25.400Z,992.53
2018-02-01T03:47:51.527Z,992.49
2018-02-01T03:48:17.625Z,992.58
2018-02-01T03:48:43.725Z,992.61
2018-02-01T03:49:09.823Z,992.59
2018-02-01T03:49:35.956Z,992.61
2018-02-01T03:50:02.060Z,992.61
2018-02-01T03:50:28.153Z,992.58
2018-02-01T03:50:54.253Z,992.61
2018-02-01T03:51:20.355Z,992.62
2018-02-01T03:51:46.494Z,992.64
2018-02-01T03:52:12.581Z,992.57
2018-02-01T03:52:38.684Z,992.63
2018-02-01T03:53:04.808Z,992.63
2018-02-01T03:53:30.911Z,992.64
2018-02-01T03:53:57.043Z,992.63
2018-02-01T03:54:23.133Z,992.66
2018-02-01T03:54:49.300Z,992.64
2018-02-01T03:55:15.370Z,992.6
2018-02-01T03:55:41.469Z,992.59
2018-02-01T03:56:07.574Z,992.59
2018-02-01T03:56:33.694Z,992.6
2018-02-01T03:56:59.794Z,992.6
2018-02-01T03:57:25.927Z,992.61
2018-02-01T03:57:52.049Z,992.59
2018-02-01T03:58:18.144Z,992.57
2018-02-01T03:58:44.244Z,992.54
2018-02-01T03:59:10.352Z,992.55
2018-02-01T03:59:36.479Z,992.57
2018-02-01T04:00:02.560Z,992.6
2018-02-01T04:00:28.660Z,992.57
2018-02-01T04:00:54.773Z,992.53
2018-02-01T04:01:20.888Z,992.54
2018-02-01T04:01:47.030Z,992.58
2018-02-01T04:02:13.117Z,992.55
2018-02-01T04:02:39.221Z,992.55
2018-02-01T04:03:05.391Z,992.54
2018-02-01T04:03:31.518Z,992.59
2018-02-01T04:03:57.742Z,992.57
2018-02-01T04:04:23.793Z,992.49
2018-02-01T04:04:49.937Z,992.55
2018-02-01T04:05:16.130Z,992.55
2018-02-01T04:05:42.267Z,992.59
2018-02-01T04:06:08.458Z,992.57
2018-02-01T04:06:34.598Z,992.56
2018-02-01T04:07:00.742Z,992.59
2018-02-01T04:07:26.895Z,992.59
2018-02-01T04:07:53.102Z,992.55
2018-02-01T04:08:19.211Z,992.57
2018-02-01T04:08:45.442Z,992.59
2018-02-01T04:09:11.561Z,992.63
2018-02-01T04:09:37.752Z,992.58
2018-02-01T04:10:03.842Z,992.59
2018-02-01T04:10:29.991Z,992.57
2018-02-01T04:10:56.150Z,992.59
2018-02-01T04:11:22.254Z,992.61
2018-02-01T04:11:48.353Z,992.6
2018-02-01T04:12:14.453Z,992.53
2018-02-01T04:12:40.591Z,992.55
2018-02-01T04:13:06.695Z,992.52
2018-02-01T04:13:32.790Z,992.49
2018-02-01T04:13:58.888Z,992.48
2018-02-01T04:14:25.008Z,992.54
2018-02-01T04:14:51.096Z,992.59
2018-02-01T04:15:17.219Z,992.5
2018-02-01T04:15:43.325Z,992.51
2018-02-01T04:16:09.423Z,992.54
2018-02-01T04:16:35.544Z,992.56
2018-02-01T04:17:01.654Z,992.51
2018-02-01T04:17:27.754Z,992.52
2018-02-01T04:17:53.847Z,992.5
2018-02-01T04:18:19.954Z,992.55
2018-02-01T04:18:46.111Z,992.62
2018-02-01T04:19:12.203Z,992.5
2018-02-01T04:19:38.300Z,992.52
2018-02-01T04:20:04.400Z,992.52
2018-02-01T04:20:30.497Z,992.57
2018-02-01T04:20:56.641Z,992.52
2018-02-01T04:21:22.742Z,992.56
2018-02-01T04:21:48.847Z,992.52
2018-02-01T04:22:14.954Z,992.56
2018-02-01T04:22:41.074Z,992.56
2018-02-01T04:23:07.235Z,992.64
2018-02-01T04:23:33.333Z,992.57
2018-02-01T04:23:59.429Z,992.54
2018-02-01T04:24:25.563Z,992.53
2018-02-01T04:24:51.662Z,992.56
2018-02-01T04:25:17.766Z,992.51
2018-02-01T04:25:43.865Z,992.52
2018-02-01T04:26:09.975Z,992.56
2018-02-01T04:26:36.095Z,992.53
2018-02-01T04:27:02.204Z,992.52
2018-02-01T04:27:28.298Z,992.56
2018-02-01T04:27:54.396Z,992.58
2018-02-01T04:28:20.501Z,992.57
2018-02-01T04:28:46.667Z,992.55
2018-02-01T04:29:12.775Z,992.49
2018-02-01T04:29:38.873Z,992.53
2018-02-01T04:30:04.984Z,992.52
2018-02-01T04:30:31.079Z,992.5
2018-02-01T04:30:57.191Z,992.45
2018-02-01T04:31:23.293Z,992.51
2018-02-01T04:31:49.388Z,992.47
2018-02-01T04:32:15.512Z,992.47
2018-02-01T04:32:41.633Z,992.47
2018-02-01T04:33:07.764Z,992.47
2018-02-01T04:33:33.861Z,992.47
2018-02-01T04:33:59.957Z,992.46
2018-02-01T04:34:26.085Z,992.5
2018-02-01T04:34:52.193Z,992.48
2018-02-01T04:35:18.287Z,992.51
2018-02-01T04:35:44.389Z,992.46
2018-02-01T04:36:10.487Z,992.45
2018-02-01T04:36:36.614Z,992.44
2018-02-01T04:37:02.716Z,992.48
2018-02-01T04:37:28.812Z,992.42
2018-02-01T04:37:54.926Z,992.46
2018-02-01T04:38:21.042Z,992.49
2018-02-01T04:38:47.149Z,992.48
2018-02-01T04:39:13.253Z,992.42
2018-02-01T04:39:39.358Z,992.43
2018-02-01T04:40:05.468Z,992.44
2018-02-01T04:40:31.566Z,992.35
2018-02-01T04:40:57.671Z,992.41
2018-02-01T04:41:23.771Z,992.38
2018-02-01T04:41:49.869Z,992.42
2018-02-01T04:42:16.006Z,992.43
2018-02-01T04:42:42.103Z,992.41
2018-02-01T04:43:08.224Z,992.38
2018-02-01T04:43:34.324Z,992.37
2018-02-01T04:44:00.422Z,992.37
2018-02-01T04:44:26.590Z,992.43
2018-02-01T04:44:52.713Z,992.39
2018-02-01T04:45:18.810Z,992.38
2018-02-01T04:45:44.932Z,992.37
2018-02-01T04:46:11.030Z,992.41
2018-02-01T04:46:37.156Z,992.4
2018-02-01T04:47:03.261Z,992.39
2018-02-01T04:47:29.361Z,992.4
2018-02-01T04:47:55.485Z,992.39
2018-02-01T04:48:21.597Z,992.39
2018-02-01T04:48:47.714Z,992.42
2018-02-01T04:49:13.830Z,992.42
2018-02-01T04:49:39.927Z,992.41
2018-02-01T04:50:06.057Z,992.41
2018-02-01T04:50:32.177Z,992.45
2018-02-01T04:50:58.278Z,992.41
2018-02-01T04:51:24.382Z,992.41
2018-02-01T04:51:50.516Z,992.43
2018-02-01T04:52:16.620Z,992.42
2018-02-01T04:52:42.720Z,992.46
2018-02-01T04:53:08.813Z,992.47
2018-02-01T04:53:34.938Z,992.5
2018-02-01T04:54:01.073Z,992.41
2018-02-01T04:54:27.200Z,992.47
2018-02-01T04:54:53.299Z,992.34
2018-02-01T04:55:19.396Z,992.41
2018-02-01T04:55:45.536Z,992.42
2018-02-01T04:56:11.653Z,992.43
2018-02-01T04:56:37.754Z,992.45
2018-02-01T04:57:03.861Z,992.42
2018-02-01T04:57:29.967Z,992.42
2018-02-01T04:57:56.099Z,992.43
2018-02-01T04:58:22.190Z,992.42
2018-02-01T04:58:48.290Z,992.43
2018-02-01T04:59:14.390Z,992.43
2018-02-01T04:59:40.511Z,992.46
2018-02-01T05:00:06.658Z,992.42
2018-02-01T05:00:32.749Z,992.53
2018-02-01T05:00:58.851Z,992.52
2018-02-01T05:01:24.951Z,992.5
2018-02-01T05:01:51.068Z,992.48
2018-02-01T05:02:17.185Z,992.46
2018-02-01T05:02:43.287Z,992.48
2018-02-01T05:03:09.400Z,992.45
2018-02-01T05:03:35.499Z,992.51
2018-02-01T05:04:01.600Z,992.5
2018-02-01T05:04:27.695Z,992.55
2018-02-01T05:04:53.809Z,992.51
2018-02-01T05:05:19.922Z,992.48
2018-02-01T05:05:46.016Z,992.52
2018-02-01T05:06:12.115Z,992.56
2018-02-01T05:06:38.218Z,992.52
2018-02-01T05:07:04.316Z,992.56
2018-02-01T05:07:30.415Z,992.52
2018-02-01T05:07:56.517Z,992.57
2018-02-01T05:08:22.614Z,992.57
2018-02-01T05:08:48.716Z,992.59
2018-02-01T05:09:14.813Z,992.56
2018-02-01T05:09:40.911Z,992.66
2018-02-01T05:10:07.015Z,992.55
2018-02-01T05:10:33.108Z,992.58
2018-02-01T05:10:59.211Z,992.59
2018-02-01T05:11:25.325Z,992.56
2018-02-01T05:11:51.427Z,992.64
2018-02-01T05:12:17.531Z,992.62
2018-02-01T05:12:43.625Z,992.61
2018-02-01T05:13:09.723Z,992.6
2018-02-01T05:13:35.825Z,992.57
2018-02-01T05:14:01.924Z,992.59
2018-02-01T05:14:28.047Z,992.66
2018-02-01T05:14:54.148Z,992.61
2018-02-01T05:15:20.245Z,992.59
2018-02-01T05:15:46.342Z,992.6
2018-02-01T05:16:12.452Z,992.59
2018-02-01T05:16:38.572Z,992.58
2018-02-01T05:17:04.665Z,992.57
2018-02-01T05:17:30.768Z,992.58
2018-02-01T05:17:56.866Z,992.67
2018-02-01T05:18:22.959Z,992.57
2018-02-01T05:18:49.063Z,992.59
2018-02-01T05:19:15.156Z,992.63
2018-02-01T05:19:41.260Z,992.53
2018-02-01T05:20:07.364Z,992.54
2018-02-01T05:20:33.459Z,992.56
2018-02-01T05:20:59.557Z,992.53
2018-02-01T05:21:25.708Z,992.56
2018-02-01T05:21:51.769Z,992.58
2018-02-01T05:22:17.866Z,992.53
2018-02-01T05:22:43.964Z,992.52
2018-02-01T05:23:10.076Z,992.47
2018-02-01T05:23:36.173Z,992.54
2018-02-01T05:24:02.277Z,992.53
2018-02-01T05:24:28.376Z,992.5
2018-02-01T05:24:54.476Z,992.61
2018-02-01T05:25:20.576Z,992.54
2018-02-01T05:25:46.687Z,992.49
2018-02-01T05:26:12.793Z,992.49
2018-02-01T05:26:38.889Z,992.53
2018-02-01T05:27:04.989Z,992.5
2018-02-01T05:27:31.092Z,992.5